sensor_id;sensor_type;location;lat;lon;timestamp;P1;durP1;ratioP1;P2;durP2;ratioP2
60847;SDS011;46681;47.696;9.140;2024-03-08T00:01:59;14.10;;;12.60;;
60847;SDS011;46681;47.696;9.140;2024-03-08T00:04:24;13.40;;;12.00;;
60847;SDS011;46681;47.696;9.140;2024-03-08T00:06:50;14.13;;;12.60;;
60847;SDS011;46681;47.696;9.140;2024-03-08T00:09:15;13.27;;;11.87;;
60847;SDS011;46681;47.696;9.140;2024-03-08T00:11:41;13.67;;;12.07;;
60847;SDS011;46681;47.696;9.140;2024-03-08T00:14:06;14.57;;;13.07;;
60847;SDS011;46681;47.696;9.140;2024-03-08T00:16:33;14.03;;;12.53;;
60847;SDS011;46681;47.696;9.140;2024-03-08T00:18:59;15.10;;;12.53;;
60847;SDS011;46681;47.696;9.140;2024-03-08T00:21:24;13.47;;;12.03;;
60847;SDS011;46681;47.696;9.140;2024-03-08T00:23:50;12.83;;;11.43;;
60847;SDS011;46681;47.696;9.140;2024-03-08T00:26:17;13.97;;;12.47;;
60847;SDS011;46681;47.696;9.140;2024-03-08T00:28:48;13.63;;;12.23;;
60847;SDS011;46681;47.696;9.140;2024-03-08T00:31:14;13.13;;;11.77;;
60847;SDS011;46681;47.696;9.140;2024-03-08T00:33:40;13.63;;;11.70;;
60847;SDS011;46681;47.696;9.140;2024-03-08T00:36:05;13.10;;;11.73;;
60847;SDS011;46681;47.696;9.140;2024-03-08T00:38:31;14.77;;;11.30;;
60847;SDS011;46681;47.696;9.140;2024-03-08T00:40:56;12.87;;;11.57;;
60847;SDS011;46681;47.696;9.140;2024-03-08T00:43:22;12.83;;;11.53;;
60847;SDS011;46681;47.696;9.140;2024-03-08T00:45:49;13.67;;;11.33;;
60847;SDS011;46681;47.696;9.140;2024-03-08T00:48:15;15.27;;;11.43;;
60847;SDS011;46681;47.696;9.140;2024-03-08T00:50:40;13.27;;;11.53;;
60847;SDS011;46681;47.696;9.140;2024-03-08T00:53:07;12.37;;;10.87;;
60847;SDS011;46681;47.696;9.140;2024-03-08T00:55:33;13.07;;;11.70;;
60847;SDS011;46681;47.696;9.140;2024-03-08T00:57:59;13.03;;;11.63;;
60847;SDS011;46681;47.696;9.140;2024-03-08T01:00:25;12.03;;;10.70;;
60847;SDS011;46681;47.696;9.140;2024-03-08T01:02:52;13.77;;;11.43;;
60847;SDS011;46681;47.696;9.140;2024-03-08T01:05:18;10.80;;;9.70;;
60847;SDS011;46681;47.696;9.140;2024-03-08T01:07:43;11.73;;;10.50;;
60847;SDS011;46681;47.696;9.140;2024-03-08T01:10:09;13.90;;;11.53;;
60847;SDS011;46681;47.696;9.140;2024-03-08T01:12:35;12.20;;;10.90;;
60847;SDS011;46681;47.696;9.140;2024-03-08T01:15:00;12.87;;;10.57;;
60847;SDS011;46681;47.696;9.140;2024-03-08T01:17:26;12.83;;;11.07;;
60847;SDS011;46681;47.696;9.140;2024-03-08T01:19:52;12.10;;;10.80;;
60847;SDS011;46681;47.696;9.140;2024-03-08T01:22:19;13.70;;;10.30;;
60847;SDS011;46681;47.696;9.140;2024-03-08T01:24:45;13.20;;;11.73;;
60847;SDS011;46681;47.696;9.140;2024-03-08T01:27:14;12.37;;;10.33;;
60847;SDS011;46681;47.696;9.140;2024-03-08T01:29:40;12.50;;;10.20;;
60847;SDS011;46681;47.696;9.140;2024-03-08T01:32:08;11.40;;;10.20;;
60847;SDS011;46681;47.696;9.140;2024-03-08T01:34:33;11.73;;;10.53;;
60847;SDS011;46681;47.696;9.140;2024-03-08T01:36:59;11.77;;;10.53;;
60847;SDS011;46681;47.696;9.140;2024-03-08T01:39:24;11.40;;;10.00;;
60847;SDS011;46681;47.696;9.140;2024-03-08T01:41:51;11.40;;;10.23;;
60847;SDS011;46681;47.696;9.140;2024-03-08T01:44:16;11.70;;;10.37;;
60847;SDS011;46681;47.696;9.140;2024-03-08T01:46:42;11.40;;;9.83;;
60847;SDS011;46681;47.696;9.140;2024-03-08T01:49:08;11.03;;;9.90;;
60847;SDS011;46681;47.696;9.140;2024-03-08T01:51:33;10.77;;;9.67;;
60847;SDS011;46681;47.696;9.140;2024-03-08T01:53:59;11.30;;;10.17;;
60847;SDS011;46681;47.696;9.140;2024-03-08T01:56:27;12.50;;;11.07;;
60847;SDS011;46681;47.696;9.140;2024-03-08T01:58:53;12.80;;;10.37;;
60847;SDS011;46681;47.696;9.140;2024-03-08T02:01:21;12.20;;;9.47;;
60847;SDS011;46681;47.696;9.140;2024-03-08T02:03:47;11.47;;;10.30;;
60847;SDS011;46681;47.696;9.140;2024-03-08T02:06:12;12.13;;;10.27;;
60847;SDS011;46681;47.696;9.140;2024-03-08T02:08:38;11.60;;;10.00;;
60847;SDS011;46681;47.696;9.140;2024-03-08T02:11:04;11.53;;;10.33;;
60847;SDS011;46681;47.696;9.140;2024-03-08T02:13:30;10.63;;;9.53;;
60847;SDS011;46681;47.696;9.140;2024-03-08T02:15:56;10.57;;;9.40;;
60847;SDS011;46681;47.696;9.140;2024-03-08T02:18:23;10.30;;;9.23;;
60847;SDS011;46681;47.696;9.140;2024-03-08T02:20:52;11.50;;;9.87;;
60847;SDS011;46681;47.696;9.140;2024-03-08T02:23:21;11.27;;;10.07;;
60847;SDS011;46681;47.696;9.140;2024-03-08T02:25:48;10.77;;;9.63;;
60847;SDS011;46681;47.696;9.140;2024-03-08T02:28:14;10.33;;;9.33;;
60847;SDS011;46681;47.696;9.140;2024-03-08T02:30:40;11.07;;;9.33;;
60847;SDS011;46681;47.696;9.140;2024-03-08T02:33:06;10.50;;;9.40;;
60847;SDS011;46681;47.696;9.140;2024-03-08T02:35:33;10.53;;;9.53;;
60847;SDS011;46681;47.696;9.140;2024-03-08T02:38:04;10.53;;;9.43;;
60847;SDS011;46681;47.696;9.140;2024-03-08T02:40:30;9.80;;;8.80;;
60847;SDS011;46681;47.696;9.140;2024-03-08T02:42:56;10.10;;;9.10;;
60847;SDS011;46681;47.696;9.140;2024-03-08T02:45:22;9.80;;;8.70;;
60847;SDS011;46681;47.696;9.140;2024-03-08T02:47:47;10.13;;;9.13;;
60847;SDS011;46681;47.696;9.140;2024-03-08T02:50:13;11.10;;;9.73;;
60847;SDS011;46681;47.696;9.140;2024-03-08T02:52:38;10.23;;;9.23;;
60847;SDS011;46681;47.696;9.140;2024-03-08T02:55:04;11.33;;;10.13;;
60847;SDS011;46681;47.696;9.140;2024-03-08T02:57:30;10.03;;;9.03;;
60847;SDS011;46681;47.696;9.140;2024-03-08T02:59:55;10.07;;;9.07;;
60847;SDS011;46681;47.696;9.140;2024-03-08T03:02:21;10.67;;;9.57;;
60847;SDS011;46681;47.696;9.140;2024-03-08T03:04:47;10.50;;;9.40;;
60847;SDS011;46681;47.696;9.140;2024-03-08T03:07:12;10.03;;;9.03;;
60847;SDS011;46681;47.696;9.140;2024-03-08T03:09:38;10.77;;;9.63;;
60847;SDS011;46681;47.696;9.140;2024-03-08T03:12:03;10.30;;;9.30;;
60847;SDS011;46681;47.696;9.140;2024-03-08T03:14:29;10.00;;;9.00;;
60847;SDS011;46681;47.696;9.140;2024-03-08T03:16:55;10.07;;;8.73;;
60847;SDS011;46681;47.696;9.140;2024-03-08T03:19:21;10.37;;;9.27;;
60847;SDS011;46681;47.696;9.140;2024-03-08T03:21:46;13.67;;;9.53;;
60847;SDS011;46681;47.696;9.140;2024-03-08T03:24:13;9.87;;;8.93;;
60847;SDS011;46681;47.696;9.140;2024-03-08T03:26:38;10.87;;;9.77;;
60847;SDS011;46681;47.696;9.140;2024-03-08T03:29:07;10.83;;;9.73;;
60847;SDS011;46681;47.696;9.140;2024-03-08T03:31:36;11.00;;;9.73;;
60847;SDS011;46681;47.696;9.140;2024-03-08T03:34:01;9.90;;;8.90;;
60847;SDS011;46681;47.696;9.140;2024-03-08T03:36:27;11.33;;;9.73;;
60847;SDS011;46681;47.696;9.140;2024-03-08T03:38:54;10.93;;;9.67;;
60847;SDS011;46681;47.696;9.140;2024-03-08T03:41:19;10.33;;;9.30;;
60847;SDS011;46681;47.696;9.140;2024-03-08T03:43:45;10.07;;;9.00;;
60847;SDS011;46681;47.696;9.140;2024-03-08T03:46:10;10.37;;;9.33;;
60847;SDS011;46681;47.696;9.140;2024-03-08T03:48:37;10.17;;;9.17;;
60847;SDS011;46681;47.696;9.140;2024-03-08T03:51:03;11.73;;;9.93;;
60847;SDS011;46681;47.696;9.140;2024-03-08T03:53:28;10.43;;;9.33;;
60847;SDS011;46681;47.696;9.140;2024-03-08T03:55:54;10.60;;;9.50;;
60847;SDS011;46681;47.696;9.140;2024-03-08T03:58:19;13.63;;;10.50;;
60847;SDS011;46681;47.696;9.140;2024-03-08T04:00:45;11.27;;;10.03;;
60847;SDS011;46681;47.696;9.140;2024-03-08T04:03:11;12.30;;;10.23;;
60847;SDS011;46681;47.696;9.140;2024-03-08T04:05:38;12.03;;;10.13;;
60847;SDS011;46681;47.696;9.140;2024-03-08T04:08:03;10.70;;;9.60;;
60847;SDS011;46681;47.696;9.140;2024-03-08T04:10:29;11.60;;;10.40;;
60847;SDS011;46681;47.696;9.140;2024-03-08T04:12:54;11.07;;;9.97;;
60847;SDS011;46681;47.696;9.140;2024-03-08T04:15:20;12.00;;;10.70;;
60847;SDS011;46681;47.696;9.140;2024-03-08T04:17:48;10.77;;;9.67;;
60847;SDS011;46681;47.696;9.140;2024-03-08T04:20:14;12.37;;;10.57;;
60847;SDS011;46681;47.696;9.140;2024-03-08T04:22:39;11.90;;;10.70;;
60847;SDS011;46681;47.696;9.140;2024-03-08T04:25:05;11.87;;;10.63;;
60847;SDS011;46681;47.696;9.140;2024-03-08T04:27:32;12.00;;;10.10;;
60847;SDS011;46681;47.696;9.140;2024-03-08T04:30:00;12.30;;;10.60;;
60847;SDS011;46681;47.696;9.140;2024-03-08T04:32:28;11.20;;;10.00;;
60847;SDS011;46681;47.696;9.140;2024-03-08T04:34:53;11.57;;;10.27;;
60847;SDS011;46681;47.696;9.140;2024-03-08T04:37:19;12.23;;;10.40;;
60847;SDS011;46681;47.696;9.140;2024-03-08T04:39:45;11.23;;;10.03;;
60847;SDS011;46681;47.696;9.140;2024-03-08T04:42:12;12.10;;;10.60;;
60847;SDS011;46681;47.696;9.140;2024-03-08T04:44:38;11.90;;;10.30;;
60847;SDS011;46681;47.696;9.140;2024-03-08T04:47:04;13.23;;;11.83;;
60847;SDS011;46681;47.696;9.140;2024-03-08T04:49:30;12.30;;;10.40;;
60847;SDS011;46681;47.696;9.140;2024-03-08T04:51:57;12.03;;;10.83;;
60847;SDS011;46681;47.696;9.140;2024-03-08T04:54:23;11.80;;;10.60;;
60847;SDS011;46681;47.696;9.140;2024-03-08T04:56:49;12.20;;;10.97;;
60847;SDS011;46681;47.696;9.140;2024-03-08T04:59:16;13.57;;;11.47;;
60847;SDS011;46681;47.696;9.140;2024-03-08T05:01:43;12.80;;;10.67;;
60847;SDS011;46681;47.696;9.140;2024-03-08T05:04:10;12.73;;;11.37;;
60847;SDS011;46681;47.696;9.140;2024-03-08T05:06:36;12.27;;;10.97;;
60847;SDS011;46681;47.696;9.140;2024-03-08T05:09:06;12.53;;;11.00;;
60847;SDS011;46681;47.696;9.140;2024-03-08T05:11:32;13.40;;;11.23;;
60847;SDS011;46681;47.696;9.140;2024-03-08T05:13:58;12.80;;;11.47;;
60847;SDS011;46681;47.696;9.140;2024-03-08T05:16:23;12.23;;;9.87;;
60847;SDS011;46681;47.696;9.140;2024-03-08T05:18:51;10.23;;;9.10;;
60847;SDS011;46681;47.696;9.140;2024-03-08T05:21:18;11.20;;;10.00;;
60847;SDS011;46681;47.696;9.140;2024-03-08T05:23:44;11.77;;;10.57;;
60847;SDS011;46681;47.696;9.140;2024-03-08T05:26:10;10.13;;;9.13;;
60847;SDS011;46681;47.696;9.140;2024-03-08T05:28:37;11.57;;;10.13;;
60847;SDS011;46681;47.696;9.140;2024-03-08T05:31:05;12.60;;;10.10;;
60847;SDS011;46681;47.696;9.140;2024-03-08T05:33:32;10.70;;;9.70;;
60847;SDS011;46681;47.696;9.140;2024-03-08T05:35:57;11.50;;;9.50;;
60847;SDS011;46681;47.696;9.140;2024-03-08T05:38:23;10.50;;;9.50;;
60847;SDS011;46681;47.696;9.140;2024-03-08T05:40:51;11.03;;;9.90;;
60847;SDS011;46681;47.696;9.140;2024-03-08T05:43:16;11.03;;;8.90;;
60847;SDS011;46681;47.696;9.140;2024-03-08T05:45:42;10.67;;;9.57;;
60847;SDS011;46681;47.696;9.140;2024-03-08T05:48:07;10.03;;;8.80;;
60847;SDS011;46681;47.696;9.140;2024-03-08T05:50:35;10.30;;;9.13;;
60847;SDS011;46681;47.696;9.140;2024-03-08T05:53:03;11.57;;;8.40;;
60847;SDS011;46681;47.696;9.140;2024-03-08T05:55:32;10.90;;;9.20;;
60847;SDS011;46681;47.696;9.140;2024-03-08T05:57:58;11.30;;;9.60;;
60847;SDS011;46681;47.696;9.140;2024-03-08T06:00:25;11.40;;;10.20;;
60847;SDS011;46681;47.696;9.140;2024-03-08T06:02:50;10.93;;;9.77;;
60847;SDS011;46681;47.696;9.140;2024-03-08T06:05:16;10.97;;;9.87;;
60847;SDS011;46681;47.696;9.140;2024-03-08T06:07:43;10.40;;;9.23;;
60847;SDS011;46681;47.696;9.140;2024-03-08T06:10:09;12.50;;;10.03;;
60847;SDS011;46681;47.696;9.140;2024-03-08T06:12:38;11.83;;;10.63;;
60847;SDS011;46681;47.696;9.140;2024-03-08T06:15:07;14.53;;;10.53;;
60847;SDS011;46681;47.696;9.140;2024-03-08T06:17:36;12.60;;;10.57;;
60847;SDS011;46681;47.696;9.140;2024-03-08T06:20:02;11.87;;;10.63;;
60847;SDS011;46681;47.696;9.140;2024-03-08T06:22:28;12.97;;;10.00;;
60847;SDS011;46681;47.696;9.140;2024-03-08T06:24:55;10.67;;;9.57;;
60847;SDS011;46681;47.696;9.140;2024-03-08T06:27:21;13.00;;;10.00;;
60847;SDS011;46681;47.696;9.140;2024-03-08T06:29:47;11.63;;;10.40;;
60847;SDS011;46681;47.696;9.140;2024-03-08T06:32:13;11.50;;;10.20;;
60847;SDS011;46681;47.696;9.140;2024-03-08T06:34:42;12.43;;;10.47;;
60847;SDS011;46681;47.696;9.140;2024-03-08T06:37:07;11.83;;;9.93;;
60847;SDS011;46681;47.696;9.140;2024-03-08T06:39:33;12.10;;;9.87;;
60847;SDS011;46681;47.696;9.140;2024-03-08T06:42:00;11.37;;;10.23;;
60847;SDS011;46681;47.696;9.140;2024-03-08T06:44:25;11.83;;;10.63;;
60847;SDS011;46681;47.696;9.140;2024-03-08T06:46:51;12.60;;;9.73;;
60847;SDS011;46681;47.696;9.140;2024-03-08T06:49:17;10.93;;;9.73;;
60847;SDS011;46681;47.696;9.140;2024-03-08T06:51:48;11.20;;;9.73;;
60847;SDS011;46681;47.696;9.140;2024-03-08T06:54:13;11.77;;;10.30;;
60847;SDS011;46681;47.696;9.140;2024-03-08T06:56:39;14.80;;;10.93;;
60847;SDS011;46681;47.696;9.140;2024-03-08T06:59:04;14.10;;;11.00;;
60847;SDS011;46681;47.696;9.140;2024-03-08T07:01:34;10.50;;;9.40;;
60847;SDS011;46681;47.696;9.140;2024-03-08T07:04:02;12.93;;;10.47;;
60847;SDS011;46681;47.696;9.140;2024-03-08T07:06:31;11.40;;;10.20;;
60847;SDS011;46681;47.696;9.140;2024-03-08T07:08:56;12.07;;;10.87;;
60847;SDS011;46681;47.696;9.140;2024-03-08T07:11:23;11.90;;;10.63;;
60847;SDS011;46681;47.696;9.140;2024-03-08T07:13:51;12.50;;;11.20;;
60847;SDS011;46681;47.696;9.140;2024-03-08T07:16:22;12.70;;;11.10;;
60847;SDS011;46681;47.696;9.140;2024-03-08T07:18:50;12.77;;;10.57;;
60847;SDS011;46681;47.696;9.140;2024-03-08T07:21:15;13.13;;;11.10;;
60847;SDS011;46681;47.696;9.140;2024-03-08T07:23:43;14.50;;;11.27;;
60847;SDS011;46681;47.696;9.140;2024-03-08T07:26:16;11.63;;;10.43;;
60847;SDS011;46681;47.696;9.140;2024-03-08T07:28:41;14.50;;;11.93;;
60847;SDS011;46681;47.696;9.140;2024-03-08T07:31:14;13.07;;;10.97;;
60847;SDS011;46681;47.696;9.140;2024-03-08T07:33:40;13.60;;;10.77;;
60847;SDS011;46681;47.696;9.140;2024-03-08T07:36:06;13.87;;;12.47;;
60847;SDS011;46681;47.696;9.140;2024-03-08T07:38:35;14.10;;;11.57;;
60847;SDS011;46681;47.696;9.140;2024-03-08T07:41:01;13.33;;;11.70;;
60847;SDS011;46681;47.696;9.140;2024-03-08T07:43:32;12.60;;;10.23;;
60847;SDS011;46681;47.696;9.140;2024-03-08T07:45:58;11.90;;;10.50;;
60847;SDS011;46681;47.696;9.140;2024-03-08T07:48:23;12.47;;;10.30;;
60847;SDS011;46681;47.696;9.140;2024-03-08T07:50:51;11.77;;;9.33;;
60847;SDS011;46681;47.696;9.140;2024-03-08T07:56:48;10.93;;;9.80;;
60847;SDS011;46681;47.696;9.140;2024-03-08T07:59:21;12.23;;;10.80;;
60847;SDS011;46681;47.696;9.140;2024-03-08T08:01:51;11.47;;;10.03;;
60847;SDS011;46681;47.696;9.140;2024-03-08T08:04:16;12.07;;;10.77;;
60847;SDS011;46681;47.696;9.140;2024-03-08T08:06:44;11.60;;;10.33;;
60847;SDS011;46681;47.696;9.140;2024-03-08T08:09:12;11.50;;;10.30;;
60847;SDS011;46681;47.696;9.140;2024-03-08T08:11:38;11.83;;;10.60;;
60847;SDS011;46681;47.696;9.140;2024-03-08T08:14:04;11.47;;;10.17;;
60847;SDS011;46681;47.696;9.140;2024-03-08T08:16:29;12.37;;;11.07;;
60847;SDS011;46681;47.696;9.140;2024-03-08T08:18:55;12.20;;;10.30;;
60847;SDS011;46681;47.696;9.140;2024-03-08T08:21:27;12.00;;;10.80;;
60847;SDS011;46681;47.696;9.140;2024-03-08T08:24:00;11.60;;;10.40;;
60847;SDS011;46681;47.696;9.140;2024-03-08T08:26:31;12.87;;;10.80;;
60847;SDS011;46681;47.696;9.140;2024-03-08T08:28:57;13.27;;;11.47;;
60847;SDS011;46681;47.696;9.140;2024-03-08T08:31:24;12.33;;;10.80;;
60847;SDS011;46681;47.696;9.140;2024-03-08T08:33:50;14.00;;;11.43;;
60847;SDS011;46681;47.696;9.140;2024-03-08T08:36:21;13.57;;;10.20;;
60847;SDS011;46681;47.696;9.140;2024-03-08T08:38:47;13.17;;;10.67;;
60847;SDS011;46681;47.696;9.140;2024-03-08T08:41:12;11.37;;;10.07;;
60847;SDS011;46681;47.696;9.140;2024-03-08T08:43:39;12.80;;;10.37;;
60847;SDS011;46681;47.696;9.140;2024-03-08T08:46:06;13.53;;;10.93;;
60847;SDS011;46681;47.696;9.140;2024-03-08T08:48:33;11.93;;;10.63;;
60847;SDS011;46681;47.696;9.140;2024-03-08T08:51:01;13.10;;;11.23;;
60847;SDS011;46681;47.696;9.140;2024-03-08T08:53:29;11.90;;;10.70;;
60847;SDS011;46681;47.696;9.140;2024-03-08T08:55:55;13.00;;;10.73;;
60847;SDS011;46681;47.696;9.140;2024-03-08T08:58:21;14.27;;;10.70;;
60847;SDS011;46681;47.696;9.140;2024-03-08T09:00:46;12.27;;;9.87;;
60847;SDS011;46681;47.696;9.140;2024-03-08T09:03:12;12.30;;;9.83;;
60847;SDS011;46681;47.696;9.140;2024-03-08T09:05:39;12.07;;;10.03;;
60847;SDS011;46681;47.696;9.140;2024-03-08T09:08:10;12.53;;;10.40;;
60847;SDS011;46681;47.696;9.140;2024-03-08T09:10:40;11.50;;;9.97;;
60847;SDS011;46681;47.696;9.140;2024-03-08T09:13:06;11.50;;;10.30;;
60847;SDS011;46681;47.696;9.140;2024-03-08T09:15:43;14.20;;;10.57;;
60847;SDS011;46681;47.696;9.140;2024-03-08T09:18:16;12.17;;;10.10;;
60847;SDS011;46681;47.696;9.140;2024-03-08T09:20:43;14.40;;;10.43;;
60847;SDS011;46681;47.696;9.140;2024-03-08T09:23:10;10.87;;;9.57;;
60847;SDS011;46681;47.696;9.140;2024-03-08T09:25:35;12.80;;;9.73;;
60847;SDS011;46681;47.696;9.140;2024-03-08T09:28:06;12.13;;;10.10;;
60847;SDS011;46681;47.696;9.140;2024-03-08T09:30:31;15.27;;;10.43;;
60847;SDS011;46681;47.696;9.140;2024-03-08T09:32:58;14.07;;;9.67;;
60847;SDS011;46681;47.696;9.140;2024-03-08T09:35:23;14.53;;;10.30;;
60847;SDS011;46681;47.696;9.140;2024-03-08T09:38:01;13.27;;;9.23;;
60847;SDS011;46681;47.696;9.140;2024-03-08T09:40:34;10.67;;;9.50;;
60847;SDS011;46681;47.696;9.140;2024-03-08T09:43:01;13.23;;;9.87;;
60847;SDS011;46681;47.696;9.140;2024-03-08T09:45:30;12.47;;;9.87;;
60847;SDS011;46681;47.696;9.140;2024-03-08T09:48:05;13.00;;;9.67;;
60847;SDS011;46681;47.696;9.140;2024-03-08T09:50:37;11.10;;;9.53;;
60847;SDS011;46681;47.696;9.140;2024-03-08T09:53:09;11.10;;;8.43;;
60847;SDS011;46681;47.696;9.140;2024-03-08T09:55:53;11.37;;;8.07;;
60847;SDS011;46681;47.696;9.140;2024-03-08T09:58:20;10.87;;;8.90;;
60847;SDS011;46681;47.696;9.140;2024-03-08T10:00:45;10.07;;;8.13;;
60847;SDS011;46681;47.696;9.140;2024-03-08T10:03:11;12.50;;;8.40;;
60847;SDS011;46681;47.696;9.140;2024-03-08T10:05:37;10.93;;;7.97;;
60847;SDS011;46681;47.696;9.140;2024-03-08T10:08:10;10.73;;;8.87;;
60847;SDS011;46681;47.696;9.140;2024-03-08T10:10:42;10.97;;;8.30;;
60847;SDS011;46681;47.696;9.140;2024-03-08T10:13:29;9.00;;;8.00;;
60847;SDS011;46681;47.696;9.140;2024-03-08T10:16:22;10.37;;;8.23;;
60847;SDS011;46681;47.696;9.140;2024-03-08T10:18:49;9.43;;;7.83;;
60847;SDS011;46681;47.696;9.140;2024-03-08T10:21:20;9.43;;;7.60;;
60847;SDS011;46681;47.696;9.140;2024-03-08T10:23:57;10.43;;;7.90;;
60847;SDS011;46681;47.696;9.140;2024-03-08T10:26:25;9.77;;;7.80;;
60847;SDS011;46681;47.696;9.140;2024-03-08T10:28:54;10.87;;;7.83;;
60847;SDS011;46681;47.696;9.140;2024-03-08T10:31:23;9.90;;;7.20;;
60847;SDS011;46681;47.696;9.140;2024-03-08T10:33:53;8.07;;;6.77;;
60847;SDS011;46681;47.696;9.140;2024-03-08T10:36:26;9.30;;;7.57;;
60847;SDS011;46681;47.696;9.140;2024-03-08T10:38:59;8.27;;;7.20;;
60847;SDS011;46681;47.696;9.140;2024-03-08T10:41:31;8.60;;;7.43;;
60847;SDS011;46681;47.696;9.140;2024-03-08T10:47:09;8.47;;;7.67;;
60847;SDS011;46681;47.696;9.140;2024-03-08T10:52:42;8.43;;;7.40;;
60847;SDS011;46681;47.696;9.140;2024-03-08T10:55:11;8.23;;;7.37;;
60847;SDS011;46681;47.696;9.140;2024-03-08T10:57:42;7.30;;;6.57;;
60847;SDS011;46681;47.696;9.140;2024-03-08T11:00:08;8.10;;;7.17;;
60847;SDS011;46681;47.696;9.140;2024-03-08T11:02:45;8.50;;;7.70;;
60847;SDS011;46681;47.696;9.140;2024-03-08T11:05:56;7.77;;;7.07;;
60847;SDS011;46681;47.696;9.140;2024-03-08T11:10:46;8.70;;;7.70;;
60847;SDS011;46681;47.696;9.140;2024-03-08T11:13:39;8.30;;;7.07;;
60847;SDS011;46681;47.696;9.140;2024-03-08T11:16:08;9.20;;;7.93;;
60847;SDS011;46681;47.696;9.140;2024-03-08T11:18:42;7.40;;;6.60;;
60847;SDS011;46681;47.696;9.140;2024-03-08T11:21:24;8.37;;;7.07;;
60847;SDS011;46681;47.696;9.140;2024-03-08T11:23:59;7.13;;;6.43;;
60847;SDS011;46681;47.696;9.140;2024-03-08T11:26:28;7.47;;;6.63;;
60847;SDS011;46681;47.696;9.140;2024-03-08T11:29:32;9.30;;;7.57;;
60847;SDS011;46681;47.696;9.140;2024-03-08T11:34:46;8.10;;;7.30;;
60847;SDS011;46681;47.696;9.140;2024-03-08T11:37:19;9.43;;;7.50;;
60847;SDS011;46681;47.696;9.140;2024-03-08T11:39:56;9.13;;;7.17;;
60847;SDS011;46681;47.696;9.140;2024-03-08T11:42:22;8.10;;;6.43;;
60847;SDS011;46681;47.696;9.140;2024-03-08T11:45:09;7.80;;;6.93;;
60847;SDS011;46681;47.696;9.140;2024-03-08T11:47:46;7.80;;;6.93;;
60847;SDS011;46681;47.696;9.140;2024-03-08T11:50:26;8.07;;;7.10;;
60847;SDS011;46681;47.696;9.140;2024-03-08T11:53:27;7.43;;;6.50;;
60847;SDS011;46681;47.696;9.140;2024-03-08T11:56:08;7.63;;;6.90;;
60847;SDS011;46681;47.696;9.140;2024-03-08T11:58:55;7.93;;;7.23;;
60847;SDS011;46681;47.696;9.140;2024-03-08T12:01:29;7.00;;;6.30;;
60847;SDS011;46681;47.696;9.140;2024-03-08T12:04:00;8.10;;;7.03;;
60847;SDS011;46681;47.696;9.140;2024-03-08T12:06:49;7.93;;;6.80;;
60847;SDS011;46681;47.696;9.140;2024-03-08T12:09:31;7.13;;;6.43;;
60847;SDS011;46681;47.696;9.140;2024-03-08T12:11:58;7.20;;;6.33;;
60847;SDS011;46681;47.696;9.140;2024-03-08T12:14:32;7.70;;;6.80;;
60847;SDS011;46681;47.696;9.140;2024-03-08T12:17:04;7.97;;;7.07;;
60847;SDS011;46681;47.696;9.140;2024-03-08T12:19:35;10.23;;;9.23;;
60847;SDS011;46681;47.696;9.140;2024-03-08T12:22:11;9.37;;;8.47;;
60847;SDS011;46681;47.696;9.140;2024-03-08T12:25:02;8.80;;;7.90;;
60847;SDS011;46681;47.696;9.140;2024-03-08T12:27:36;7.83;;;7.03;;
60847;SDS011;46681;47.696;9.140;2024-03-08T12:30:26;8.37;;;6.83;;
60847;SDS011;46681;47.696;9.140;2024-03-08T12:35:28;8.57;;;7.63;;
60847;SDS011;46681;47.696;9.140;2024-03-08T12:37:57;7.67;;;6.87;;
60847;SDS011;46681;47.696;9.140;2024-03-08T12:42:55;9.13;;;8.23;;
60847;SDS011;46681;47.696;9.140;2024-03-08T12:45:23;7.60;;;6.73;;
60847;SDS011;46681;47.696;9.140;2024-03-08T12:47:51;7.67;;;6.87;;
60847;SDS011;46681;47.696;9.140;2024-03-08T12:50:20;7.27;;;6.57;;
60847;SDS011;46681;47.696;9.140;2024-03-08T12:52:51;8.03;;;7.00;;
60847;SDS011;46681;47.696;9.140;2024-03-08T12:55:20;6.63;;;5.93;;
60847;SDS011;46681;47.696;9.140;2024-03-08T12:57:48;8.37;;;6.40;;
60847;SDS011;46681;47.696;9.140;2024-03-08T13:00:16;8.57;;;6.17;;
60847;SDS011;46681;47.696;9.140;2024-03-08T13:02:42;7.73;;;6.83;;
60847;SDS011;46681;47.696;9.140;2024-03-08T13:05:16;8.93;;;6.00;;
60847;SDS011;46681;47.696;9.140;2024-03-08T13:07:43;7.43;;;6.00;;
60847;SDS011;46681;47.696;9.140;2024-03-08T13:10:14;6.27;;;5.67;;
60847;SDS011;46681;47.696;9.140;2024-03-08T13:12:43;6.70;;;6.07;;
60847;SDS011;46681;47.696;9.140;2024-03-08T13:15:15;6.70;;;5.90;;
60847;SDS011;46681;47.696;9.140;2024-03-08T13:17:41;6.70;;;5.93;;
60847;SDS011;46681;47.696;9.140;2024-03-08T13:20:08;6.67;;;6.07;;
60847;SDS011;46681;47.696;9.140;2024-03-08T13:22:39;6.73;;;5.87;;
60847;SDS011;46681;47.696;9.140;2024-03-08T13:25:05;6.90;;;6.20;;
60847;SDS011;46681;47.696;9.140;2024-03-08T13:27:30;7.60;;;6.07;;
60847;SDS011;46681;47.696;9.140;2024-03-08T13:30:02;6.67;;;6.03;;
60847;SDS011;46681;47.696;9.140;2024-03-08T13:32:33;7.10;;;6.17;;
60847;SDS011;46681;47.696;9.140;2024-03-08T13:35:00;7.50;;;5.97;;
60847;SDS011;46681;47.696;9.140;2024-03-08T13:37:27;6.87;;;6.17;;
60847;SDS011;46681;47.696;9.140;2024-03-08T13:40:00;6.33;;;5.70;;
60847;SDS011;46681;47.696;9.140;2024-03-08T13:42:32;6.63;;;6.03;;
60847;SDS011;46681;47.696;9.140;2024-03-08T13:44:58;6.50;;;5.90;;
60847;SDS011;46681;47.696;9.140;2024-03-08T13:47:29;6.53;;;5.93;;
60847;SDS011;46681;47.696;9.140;2024-03-08T13:50:01;6.37;;;5.77;;
60847;SDS011;46681;47.696;9.140;2024-03-08T13:52:33;6.63;;;6.03;;
60847;SDS011;46681;47.696;9.140;2024-03-08T13:55:07;7.50;;;6.00;;
60847;SDS011;46681;47.696;9.140;2024-03-08T13:57:33;6.47;;;5.87;;
60847;SDS011;46681;47.696;9.140;2024-03-08T14:00:00;12.13;;;10.90;;
60847;SDS011;46681;47.696;9.140;2024-03-08T14:02:27;10.80;;;9.57;;
60847;SDS011;46681;47.696;9.140;2024-03-08T14:04:56;10.00;;;8.97;;
60847;SDS011;46681;47.696;9.140;2024-03-08T14:07:28;9.20;;;8.30;;
60847;SDS011;46681;47.696;9.140;2024-03-08T14:10:00;8.90;;;8.00;;
60847;SDS011;46681;47.696;9.140;2024-03-08T14:12:29;9.60;;;8.07;;
60847;SDS011;46681;47.696;9.140;2024-03-08T14:14:55;8.17;;;7.37;;
60847;SDS011;46681;47.696;9.140;2024-03-08T14:17:22;7.87;;;7.17;;
60847;SDS011;46681;47.696;9.140;2024-03-08T14:19:53;7.77;;;7.07;;
60847;SDS011;46681;47.696;9.140;2024-03-08T14:22:25;8.00;;;7.20;;
60847;SDS011;46681;47.696;9.140;2024-03-08T14:24:58;8.53;;;7.73;;
60847;SDS011;46681;47.696;9.140;2024-03-08T14:27:29;7.10;;;6.40;;
60847;SDS011;46681;47.696;9.140;2024-03-08T14:29:58;10.27;;;8.00;;
60847;SDS011;46681;47.696;9.140;2024-03-08T14:32:27;8.10;;;7.30;;
60847;SDS011;46681;47.696;9.140;2024-03-08T14:34:55;9.40;;;7.77;;
60847;SDS011;46681;47.696;9.140;2024-03-08T14:37:24;11.00;;;8.80;;
60847;SDS011;46681;47.696;9.140;2024-03-08T14:40:00;9.07;;;7.90;;
60847;SDS011;46681;47.696;9.140;2024-03-08T14:42:31;9.80;;;8.80;;
60847;SDS011;46681;47.696;9.140;2024-03-08T14:45:07;12.87;;;9.53;;
60847;SDS011;46681;47.696;9.140;2024-03-08T14:47:33;9.97;;;8.97;;
60847;SDS011;46681;47.696;9.140;2024-03-08T14:50:06;11.57;;;8.87;;
60847;SDS011;46681;47.696;9.140;2024-03-08T14:52:36;9.90;;;8.90;;
60847;SDS011;46681;47.696;9.140;2024-03-08T14:55:10;9.63;;;8.17;;
60847;SDS011;46681;47.696;9.140;2024-03-08T14:57:43;9.73;;;8.73;;
60847;SDS011;46681;47.696;9.140;2024-03-08T15:00:10;9.00;;;8.13;;
60847;SDS011;46681;47.696;9.140;2024-03-08T15:02:44;10.27;;;9.07;;